createdAt,value
2018-09-05T00:01:22.123Z,20.72
2018-09-05T00:02:22.094Z,20.63
2018-09-05T00:04:15.429Z,20.63
2018-09-05T00:05:15.368Z,20.65
2018-09-05T00:07:08.675Z,20.63
2018-09-05T00:08:08.652Z,20.65
2018-09-05T00:10:01.992Z,20.58
2018-09-05T00:11:01.934Z,20.52
2018-09-05T00:12:55.266Z,20.56
2018-09-05T00:13:55.219Z,20.59
2018-09-05T00:15:48.521Z,20.59
2018-09-05T00:16:48.496Z,20.51
2018-09-05T00:18:41.821Z,20.52
2018-09-05T00:19:41.781Z,20.60
2018-09-05T00:21:35.084Z,20.51
2018-09-05T00:22:35.049Z,20.52
2018-09-05T00:24:28.366Z,20.48
2018-09-05T00:25:28.324Z,20.56
2018-09-05T00:27:21.169Z,20.50
2018-09-05T00:28:21.132Z,20.51
2018-09-05T00:30:14.476Z,20.47
2018-09-05T00:31:14.410Z,20.44
2018-09-05T00:33:07.739Z,20.40
2018-09-05T00:34:07.719Z,20.31
2018-09-05T00:36:01.030Z,20.32
2018-09-05T00:37:00.997Z,20.43
2018-09-05T00:38:54.305Z,20.32
2018-09-05T00:39:54.285Z,20.34
2018-09-05T00:41:47.595Z,20.28
2018-09-05T00:42:47.546Z,20.26
2018-09-05T00:44:40.385Z,20.29
2018-09-05T00:45:40.331Z,20.29
2018-09-05T00:47:33.665Z,20.28
2018-09-05T00:48:33.611Z,20.26
2018-09-05T00:50:26.940Z,20.29
2018-09-05T00:51:26.904Z,20.21
2018-09-05T00:53:20.211Z,20.18
2018-09-05T00:54:20.190Z,20.29
2018-09-05T00:56:13.025Z,20.18
2018-09-05T00:57:12.955Z,20.31
2018-09-05T00:59:06.267Z,20.18
2018-09-05T01:00:06.235Z,20.21
2018-09-05T01:01:59.582Z,20.22
2018-09-05T01:02:59.522Z,20.24
2018-09-05T01:04:52.342Z,20.26
2018-09-05T01:05:52.313Z,20.18
2018-09-05T01:07:45.138Z,20.26
2018-09-05T01:08:45.090Z,20.16
2018-09-05T01:10:37.915Z,20.26
2018-09-05T01:11:37.876Z,20.24
2018-09-05T01:13:31.193Z,20.21
2018-09-05T01:14:31.167Z,20.21
2018-09-05T01:16:24.473Z,20.18
2018-09-05T01:17:24.437Z,20.21
2018-09-05T01:19:17.238Z,20.10
2018-09-05T01:20:17.218Z,20.14
2018-09-05T01:22:10.032Z,20.16
2018-09-05T01:23:09.991Z,20.09
2018-09-05T01:25:02.833Z,20.07
2018-09-05T01:26:02.782Z,20.09
2018-09-05T01:27:56.107Z,20.13
2018-09-05T01:28:56.061Z,20.06
2018-09-05T01:30:49.372Z,20.09
2018-09-05T01:31:49.341Z,20.10
2018-09-05T01:33:42.667Z,20.04
2018-09-05T01:34:42.627Z,20.11
2018-09-05T01:36:35.943Z,20.14
2018-09-05T01:37:35.903Z,20.04
2018-09-05T01:39:29.723Z,20.04
2018-09-05T01:40:29.683Z,20.14
2018-09-05T01:42:23.002Z,20.14
2018-09-05T01:43:22.988Z,20.11
2018-09-05T01:45:16.282Z,20.09
2018-09-05T01:46:16.245Z,20.07
2018-09-05T01:48:09.570Z,20.04
2018-09-05T01:49:09.525Z,20.00
2018-09-05T01:51:02.347Z,20.03
2018-09-05T01:52:02.303Z,20.03
2018-09-05T01:53:55.627Z,19.95
2018-09-05T01:54:55.583Z,19.92
2018-09-05T01:56:48.893Z,19.92
2018-09-05T01:57:48.861Z,19.91
2018-09-05T01:59:42.184Z,19.86
2018-09-05T02:00:42.128Z,19.88
2018-09-05T02:02:34.943Z,19.81
2018-09-05T02:03:34.913Z,19.86
2018-09-05T02:05:28.244Z,19.82
2018-09-05T02:06:28.198Z,19.76
2018-09-05T02:08:21.074Z,19.81
2018-09-05T02:09:20.979Z,19.85
2018-09-05T02:11:14.314Z,19.85
2018-09-05T02:12:14.264Z,19.74
2018-09-05T02:14:07.584Z,19.81
2018-09-05T02:15:07.543Z,19.85
2018-09-05T02:17:00.841Z,19.86
2018-09-05T02:18:00.810Z,19.88
2018-09-05T02:19:54.150Z,19.81
2018-09-05T02:20:54.084Z,19.84
2018-09-05T02:22:47.396Z,19.81
2018-09-05T02:23:47.369Z,19.85
2018-09-05T02:25:40.199Z,19.89
2018-09-05T02:26:40.155Z,19.86
2018-09-05T02:28:32.956Z,19.86
2018-09-05T02:29:32.935Z,19.84
2018-09-05T02:31:26.269Z,19.86
2018-09-05T02:32:26.227Z,19.84
2018-09-05T02:34:19.046Z,19.85
2018-09-05T02:35:19.005Z,19.84
2018-09-05T02:37:12.316Z,19.88
2018-09-05T02:38:12.289Z,19.85
2018-09-05T02:40:05.597Z,19.79
2018-09-05T02:41:05.557Z,19.81
2018-09-05T02:42:58.373Z,19.81
2018-09-05T02:43:58.330Z,19.79
2018-09-05T02:45:51.159Z,19.81
2018-09-05T02:46:51.128Z,19.73
2018-09-05T02:48:44.425Z,19.79
2018-09-05T02:49:44.395Z,19.79
2018-09-05T02:51:37.250Z,19.74
2018-09-05T02:52:37.179Z,19.70
2018-09-05T02:54:30.479Z,19.76
2018-09-05T02:55:30.450Z,19.76
2018-09-05T02:57:23.783Z,19.82
2018-09-05T02:58:23.736Z,19.76
2018-09-05T03:00:17.054Z,19.73
2018-09-05T03:01:17.005Z,19.77
2018-09-05T03:03:10.321Z,19.66
2018-09-05T03:04:10.281Z,19.73
2018-09-05T03:06:03.596Z,19.76
2018-09-05T03:07:03.550Z,19.73
2018-09-05T03:08:56.870Z,19.73
2018-09-05T03:09:56.836Z,19.79
2018-09-05T03:11:50.162Z,19.73
2018-09-05T03:12:50.115Z,19.79
2018-09-05T03:14:43.427Z,19.77
2018-09-05T03:15:43.390Z,19.79
2018-09-05T03:17:36.724Z,19.74
2018-09-05T03:18:36.676Z,19.82
2018-09-05T03:20:29.982Z,19.89
2018-09-05T03:21:29.961Z,19.85
2018-09-05T03:23:23.329Z,19.88
2018-09-05T03:24:23.227Z,19.91
2018-09-05T03:26:16.050Z,19.84
2018-09-05T03:27:16.031Z,19.84
2018-09-05T03:29:08.849Z,19.88
2018-09-05T03:30:08.804Z,19.86
2018-09-05T03:32:02.108Z,19.81
2018-09-05T03:33:02.139Z,19.82
2018-09-05T03:34:54.924Z,19.86
2018-09-05T03:35:54.862Z,19.91
2018-09-05T03:37:47.697Z,19.91
2018-09-05T03:38:47.644Z,19.89
2018-09-05T03:40:40.963Z,19.92
2018-09-05T03:41:40.923Z,19.92
2018-09-05T03:43:34.258Z,19.85
2018-09-05T03:44:34.215Z,19.91
2018-09-05T03:46:27.527Z,19.89
2018-09-05T03:47:27.488Z,19.86
2018-09-05T03:49:20.822Z,19.91
2018-09-05T03:50:20.773Z,19.89
2018-09-05T03:52:15.158Z,19.86
2018-09-05T03:53:15.059Z,19.91
2018-09-05T03:55:08.394Z,19.94
2018-09-05T03:56:08.339Z,19.88
2018-09-05T03:58:01.674Z,20.02
2018-09-05T03:59:01.628Z,19.95
2018-09-05T04:00:54.943Z,19.94
2018-09-05T04:01:54.902Z,19.89
2018-09-05T04:03:48.229Z,20.03
2018-09-05T04:04:48.187Z,19.86
2018-09-05T04:06:41.499Z,19.99
2018-09-05T04:07:41.463Z,19.91
2018-09-05T04:09:34.317Z,19.94
2018-09-05T04:10:34.250Z,19.94
2018-09-05T04:12:27.055Z,19.92
2018-09-05T04:13:27.028Z,19.92
2018-09-05T04:15:19.859Z,19.99
2018-09-05T04:16:19.824Z,19.92
2018-09-05T04:18:12.629Z,19.99
2018-09-05T04:19:12.594Z,19.92
2018-09-05T04:21:05.920Z,19.99
2018-09-05T04:22:05.908Z,19.91
2018-09-05T04:23:59.236Z,19.91
2018-09-05T04:24:59.196Z,19.85
2018-09-05T04:26:52.499Z,19.91
2018-09-05T04:27:52.480Z,19.88
2018-09-05T04:29:45.312Z,19.88
2018-09-05T04:30:45.235Z,19.85
2018-09-05T04:32:38.059Z,19.84
2018-09-05T04:33:38.029Z,19.84
2018-09-05T04:35:30.858Z,19.82
2018-09-05T04:36:30.817Z,19.73
2018-09-05T04:38:23.616Z,19.74
2018-09-05T04:39:23.582Z,19.76
2018-09-05T04:41:16.911Z,19.73
2018-09-05T04:42:16.871Z,19.77
2018-09-05T04:44:09.684Z,19.71
2018-09-05T04:45:09.685Z,19.66
2018-09-05T04:47:02.971Z,19.76
2018-09-05T04:48:02.922Z,19.71
2018-09-05T04:49:55.746Z,19.70
2018-09-05T04:50:55.710Z,19.70
2018-09-05T04:52:48.622Z,19.70
2018-09-05T04:53:48.491Z,19.73
2018-09-05T04:55:41.311Z,19.63
2018-09-05T04:56:41.276Z,19.66
2018-09-05T04:58:34.183Z,19.71
2018-09-05T04:59:34.046Z,19.66
2018-09-05T05:01:26.880Z,19.64
2018-09-05T05:02:26.823Z,19.59
2018-09-05T05:04:20.140Z,19.56
2018-09-05T05:05:20.120Z,19.64
2018-09-05T05:07:13.426Z,19.64
2018-09-05T05:08:13.378Z,19.58
2018-09-05T05:10:06.687Z,19.64
2018-09-05T05:11:06.656Z,19.62
2018-09-05T05:12:59.489Z,19.56
2018-09-05T05:13:59.431Z,19.56
2018-09-05T05:15:52.262Z,19.71
2018-09-05T05:16:52.216Z,19.69
2018-09-05T05:18:45.036Z,19.66
2018-09-05T05:19:45.013Z,19.70
2018-09-05T05:21:37.842Z,19.76
2018-09-05T05:22:37.780Z,19.77
2018-09-05T05:24:31.087Z,19.73
2018-09-05T05:25:31.052Z,19.76
2018-09-05T05:27:23.881Z,19.81
2018-09-05T05:28:23.827Z,19.77
2018-09-05T05:30:16.646Z,19.76
2018-09-05T05:31:16.618Z,19.77
2018-09-05T05:33:09.938Z,19.89
2018-09-05T05:34:09.894Z,19.82
2018-09-05T05:36:03.212Z,19.92
2018-09-05T05:37:03.161Z,19.92
2018-09-05T05:38:56.484Z,20.00
2018-09-05T05:39:56.447Z,19.99
2018-09-05T05:41:49.272Z,20.00
2018-09-05T05:42:49.218Z,20.03
2018-09-05T05:44:42.029Z,20.07
2018-09-05T05:45:41.998Z,20.09
2018-09-05T05:47:34.835Z,20.21
2018-09-05T05:48:34.783Z,20.21
2018-09-05T05:50:27.598Z,20.19
2018-09-05T05:51:27.576Z,20.32
2018-09-05T05:53:20.905Z,20.31
2018-09-05T05:54:20.853Z,20.34
2018-09-05T05:56:13.664Z,20.29
2018-09-05T05:57:13.638Z,20.36
2018-09-05T05:59:06.476Z,20.40
2018-09-05T06:00:06.418Z,20.37
2018-09-05T06:01:59.229Z,20.40
2018-09-05T06:02:59.200Z,20.47
2018-09-05T06:04:52.525Z,20.52
2018-09-05T06:05:52.509Z,20.48
2018-09-05T06:07:45.805Z,20.59
2018-09-05T06:08:45.763Z,20.62
2018-09-05T06:10:38.591Z,20.58
2018-09-05T06:11:38.554Z,20.63
2018-09-05T06:13:31.879Z,20.65
2018-09-05T06:14:31.839Z,20.70
2018-09-05T06:16:24.656Z,20.78
2018-09-05T06:17:24.625Z,20.81
2018-09-05T06:19:17.449Z,20.80
2018-09-05T06:20:17.406Z,20.85
2018-09-05T06:22:10.758Z,20.95
2018-09-05T06:23:10.711Z,20.93
2018-09-05T06:25:04.035Z,21.00
2018-09-05T06:26:03.990Z,21.02
2018-09-05T06:27:57.324Z,21.06
2018-09-05T06:28:57.279Z,21.12
2018-09-05T06:30:50.649Z,21.15
2018-09-05T06:31:50.539Z,21.07
2018-09-05T06:33:43.945Z,21.24
2018-09-05T06:34:43.826Z,21.17
2018-09-05T06:36:37.152Z,21.22
2018-09-05T06:37:37.122Z,21.20
2018-09-05T06:39:30.435Z,21.20
2018-09-05T06:40:30.388Z,21.29
2018-09-05T06:42:23.697Z,21.39
2018-09-05T06:43:23.664Z,21.36
2018-09-05T06:45:16.528Z,21.32
2018-09-05T06:46:16.451Z,21.36
2018-09-05T06:48:09.266Z,21.35
2018-09-05T06:49:09.231Z,21.36
2018-09-05T06:51:02.562Z,21.50
2018-09-05T06:52:02.518Z,21.43
2018-09-05T06:53:55.328Z,21.46
2018-09-05T06:54:55.290Z,21.46
2018-09-05T06:56:48.617Z,21.55
2018-09-05T06:57:48.633Z,21.64
2018-09-05T06:59:41.893Z,21.69
2018-09-05T07:00:41.860Z,21.75
2018-09-05T07:02:35.192Z,21.77
2018-09-05T07:03:35.221Z,21.82
2018-09-05T07:05:27.976Z,21.88
2018-09-05T07:06:27.933Z,21.88
2018-09-05T07:08:20.753Z,21.95
2018-09-05T07:09:20.706Z,22.00
2018-09-05T07:11:14.556Z,21.99
2018-09-05T07:12:14.493Z,22.08
2018-09-05T07:14:07.825Z,22.00
2018-09-05T07:15:07.777Z,22.08
2018-09-05T07:17:01.098Z,22.15
2018-09-05T07:18:01.054Z,22.23
2018-09-05T07:19:53.878Z,22.25
2018-09-05T07:21:05.681Z,22.28
2018-09-05T07:22:47.181Z,22.39
2018-09-05T07:23:47.131Z,22.35
2018-09-05T07:25:40.446Z,22.39
2018-09-05T07:26:40.415Z,22.38
2018-09-05T07:28:33.233Z,22.53
2018-09-05T07:29:33.188Z,22.51
2018-09-05T07:31:26.520Z,22.60
2018-09-05T07:32:26.473Z,22.63
2018-09-05T07:34:19.811Z,22.75
2018-09-05T07:35:19.763Z,22.76
2018-09-05T07:37:12.596Z,22.75
2018-09-05T07:38:12.566Z,22.69
2018-09-05T07:40:05.884Z,22.83
2018-09-05T07:41:05.853Z,22.84
2018-09-05T07:42:58.693Z,22.98
2018-09-05T07:43:58.635Z,23.09
2018-09-05T07:45:51.941Z,23.09
2018-09-05T07:46:51.920Z,23.12
2018-09-05T07:48:44.747Z,23.18
2018-09-05T07:49:44.701Z,23.21
2018-09-05T07:51:37.517Z,23.18
2018-09-05T07:52:37.488Z,23.20
2018-09-05T07:54:30.813Z,23.21
2018-09-05T07:55:30.773Z,23.21
2018-09-05T07:57:23.621Z,23.23
2018-09-05T07:58:23.554Z,23.28
2018-09-05T08:00:16.403Z,23.23
2018-09-05T08:01:16.347Z,23.40
2018-09-05T08:03:09.172Z,23.25
2018-09-05T08:04:09.138Z,23.43
2018-09-05T08:06:01.957Z,23.28
2018-09-05T08:07:01.918Z,23.34
2018-09-05T08:08:54.760Z,23.41
2018-09-05T08:09:54.705Z,23.37
2018-09-05T08:11:48.063Z,23.39
2018-09-05T08:12:47.998Z,23.46
2018-09-05T08:14:40.829Z,23.39
2018-09-05T08:15:40.773Z,23.40
2018-09-05T08:17:34.099Z,23.54
2018-09-05T08:18:34.059Z,23.48
2018-09-05T08:20:27.399Z,23.55
2018-09-05T08:21:27.348Z,23.71
2018-09-05T08:23:20.668Z,23.73
2018-09-05T08:24:20.759Z,23.83
2018-09-05T08:26:13.463Z,23.92
2018-09-05T08:27:13.425Z,23.78
2018-09-05T08:29:06.810Z,23.92
2018-09-05T08:30:06.765Z,24.01
2018-09-05T08:31:59.548Z,24.03
2018-09-05T08:32:59.495Z,24.11
2018-09-05T08:34:53.017Z,24.17
2018-09-05T08:35:53.177Z,24.16
2018-09-05T08:37:46.151Z,24.21
2018-09-05T08:38:46.116Z,24.33
2018-09-05T08:40:39.389Z,24.35
2018-09-05T08:41:39.432Z,24.39
2018-09-05T08:43:32.671Z,24.47
2018-09-05T08:44:32.718Z,24.50
2018-09-05T08:46:26.048Z,24.54
2018-09-05T08:47:26.059Z,24.60
2018-09-05T08:49:18.757Z,24.69
2018-09-05T08:50:18.726Z,24.76
2018-09-05T08:52:12.052Z,24.80
2018-09-05T08:53:12.007Z,24.80
2018-09-05T08:55:04.927Z,25.01
2018-09-05T08:56:04.798Z,24.98
2018-09-05T08:57:57.646Z,25.18
2018-09-05T08:58:57.651Z,25.22
2018-09-05T09:00:50.916Z,25.25
2018-09-05T09:01:50.876Z,25.26
2018-09-05T09:03:43.694Z,25.32
2018-09-05T09:04:43.774Z,25.31
2018-09-05T09:06:36.506Z,25.53
2018-09-05T09:07:36.467Z,25.55
2018-09-05T09:09:29.285Z,25.46
2018-09-05T09:10:29.242Z,25.48
2018-09-05T09:12:22.572Z,25.53
2018-09-05T09:13:22.533Z,25.63
2018-09-05T09:15:15.861Z,25.73
2018-09-05T09:16:15.833Z,25.73
2018-09-05T09:18:08.663Z,25.81
2018-09-05T09:19:08.616Z,25.85
2018-09-05T09:21:01.946Z,25.85
2018-09-05T09:22:01.919Z,25.84
2018-09-05T09:23:55.237Z,25.90
2018-09-05T09:24:55.197Z,25.91
2018-09-05T09:26:48.046Z,26.02
2018-09-05T09:27:47.984Z,26.00
2018-09-05T09:29:40.829Z,26.10
2018-09-05T09:30:40.796Z,25.95
2018-09-05T09:32:34.111Z,26.02
2018-09-05T09:33:34.079Z,26.00
2018-09-05T09:35:26.912Z,26.21
2018-09-05T09:36:26.859Z,26.23
2018-09-05T09:38:19.707Z,26.41
2018-09-05T09:39:19.663Z,26.47
2018-09-05T09:41:12.486Z,26.47
2018-09-05T09:42:12.453Z,26.53
2018-09-05T09:44:05.294Z,26.51
2018-09-05T09:45:05.252Z,26.53
2018-09-05T09:46:58.092Z,26.60
2018-09-05T09:47:58.038Z,26.65
2018-09-05T09:49:50.878Z,26.65
2018-09-05T09:50:50.839Z,26.81
2018-09-05T09:52:43.668Z,26.95
2018-09-05T09:53:43.648Z,26.92
2018-09-05T09:55:36.968Z,27.12
2018-09-05T09:56:36.984Z,27.02
2018-09-05T09:58:29.764Z,27.10
2018-09-05T09:59:29.719Z,27.20
2018-09-05T10:01:22.549Z,27.18
2018-09-05T10:02:22.518Z,27.15
2018-09-05T10:04:15.843Z,27.03
2018-09-05T10:05:15.840Z,27.15
2018-09-05T10:07:08.687Z,27.17
2018-09-05T10:08:08.603Z,27.17
2018-09-05T10:10:02.192Z,27.25
2018-09-05T10:11:01.902Z,27.21
2018-09-05T10:12:54.754Z,27.27
2018-09-05T10:13:54.715Z,27.30
2018-09-05T10:15:47.559Z,27.29
2018-09-05T10:16:47.520Z,27.44
2018-09-05T10:18:40.338Z,27.30
2018-09-05T10:19:40.306Z,27.29
2018-09-05T10:21:33.140Z,27.21
2018-09-05T10:22:33.167Z,27.22
2018-09-05T10:24:25.934Z,27.30
2018-09-05T10:25:25.908Z,27.32
2018-09-05T10:27:18.741Z,27.40
2018-09-05T10:28:18.700Z,27.36
2018-09-05T10:30:12.032Z,27.47
2018-09-05T10:31:11.998Z,27.64
2018-09-05T10:33:04.829Z,27.52
2018-09-05T10:34:04.805Z,27.63
2018-09-05T10:35:57.629Z,27.64
2018-09-05T10:36:57.599Z,27.73
2018-09-05T10:38:50.411Z,27.83
2018-09-05T10:39:50.385Z,27.89
2018-09-05T10:41:43.225Z,27.98
2018-09-05T10:42:43.177Z,28.02
2018-09-05T10:44:36.005Z,28.08
2018-09-05T10:45:35.974Z,28.07
2018-09-05T10:47:28.817Z,28.01
2018-09-05T10:48:28.804Z,28.05
2018-09-05T10:50:21.624Z,28.01
2018-09-05T10:51:21.594Z,28.12
2018-09-05T10:53:14.425Z,28.01
2018-09-05T10:54:14.379Z,28.08
2018-09-05T10:56:07.228Z,27.96
2018-09-05T10:57:07.180Z,27.92
2018-09-05T10:59:00.007Z,28.04
2018-09-05T10:59:59.977Z,28.11
2018-09-05T11:01:53.312Z,28.10
2018-09-05T11:02:53.289Z,28.19
2018-09-05T11:04:46.101Z,28.08
2018-09-05T11:05:46.080Z,28.05
2018-09-05T11:07:38.911Z,27.87
2018-09-05T11:08:38.865Z,27.77
2018-09-05T11:10:31.764Z,28.01
2018-09-05T11:11:31.675Z,28.08
2018-09-05T11:13:25.002Z,28.19
2018-09-05T11:14:24.951Z,28.25
2018-09-05T11:16:18.281Z,28.35
2018-09-05T11:17:18.246Z,28.39
2018-09-05T11:19:11.596Z,28.66
2018-09-05T11:20:11.552Z,28.56
2018-09-05T11:22:04.886Z,28.63
2018-09-05T11:23:04.850Z,28.66
2018-09-05T11:24:58.163Z,28.76
2018-09-05T11:25:58.148Z,28.79
2018-09-05T11:27:51.496Z,28.82
2018-09-05T11:28:51.446Z,28.82
2018-09-05T11:30:44.756Z,29.05
2018-09-05T11:31:44.742Z,29.05
2018-09-05T11:33:38.072Z,29.20
2018-09-05T11:34:38.022Z,29.34
2018-09-05T11:36:31.350Z,29.12
2018-09-05T11:37:31.322Z,29.19
2018-09-05T11:39:24.168Z,29.32
2018-09-05T11:40:24.128Z,29.44
2018-09-05T11:42:17.480Z,29.53
2018-09-05T11:43:17.443Z,29.51
2018-09-05T11:45:10.762Z,29.75
2018-09-05T11:46:10.727Z,29.78
2018-09-05T11:48:03.588Z,29.90
2018-09-05T11:49:03.530Z,29.93
2018-09-05T11:50:56.853Z,30.27
2018-09-05T11:51:56.814Z,30.51
2018-09-05T11:53:50.162Z,30.99
2018-09-05T11:54:50.131Z,31.27
2018-09-05T11:56:43.472Z,31.71
2018-09-05T11:57:43.450Z,32.07
2018-09-05T11:59:36.286Z,31.77
2018-09-05T12:00:36.243Z,31.66
2018-09-05T12:02:29.083Z,31.84
2018-09-05T12:03:29.062Z,31.74
2018-09-05T12:05:21.897Z,32.14
2018-09-05T12:06:21.862Z,31.99
2018-09-05T12:08:15.209Z,32.12
2018-09-05T12:09:15.162Z,32.15
2018-09-05T12:11:08.013Z,32.45
2018-09-05T12:12:08.037Z,32.34
2018-09-05T12:14:01.304Z,32.85
2018-09-05T12:15:01.296Z,33.04
2018-09-05T12:16:54.119Z,33.24
2018-09-05T12:17:54.092Z,33.19
2018-09-05T12:19:47.442Z,32.95
2018-09-05T12:20:47.392Z,32.82
2018-09-05T12:22:40.754Z,32.67
2018-09-05T12:23:40.727Z,32.96
2018-09-05T12:25:34.063Z,33.31
2018-09-05T12:26:34.037Z,33.14
2018-09-05T12:28:26.892Z,33.19
2018-09-05T12:29:26.848Z,33.22
2018-09-05T12:31:20.174Z,33.15
2018-09-05T12:32:20.145Z,33.27
2018-09-05T12:34:13.475Z,33.24
2018-09-05T12:35:13.444Z,33.22
2018-09-05T12:37:06.793Z,32.83
2018-09-05T12:38:06.765Z,32.83
2018-09-05T12:40:00.098Z,32.65
2018-09-05T12:41:00.053Z,32.83
2018-09-05T12:42:53.408Z,32.70
2018-09-05T12:43:53.371Z,32.48
2018-09-05T12:45:46.710Z,32.26
2018-09-05T12:46:46.674Z,32.26
2018-09-05T12:48:39.989Z,32.15
2018-09-05T12:49:39.969Z,31.99
2018-09-05T12:51:33.329Z,32.14
2018-09-05T12:52:33.289Z,32.19
2018-09-05T12:54:26.615Z,32.36
2018-09-05T12:55:26.588Z,32.37
2018-09-05T12:57:19.929Z,31.99
2018-09-05T12:58:19.895Z,31.73
2018-09-05T13:00:13.216Z,31.96
2018-09-05T13:01:13.203Z,32.09
2018-09-05T13:03:06.522Z,32.37
2018-09-05T13:04:06.494Z,32.23
2018-09-05T13:05:59.819Z,32.16
2018-09-05T13:06:59.797Z,32.27
2018-09-05T13:08:53.141Z,32.15
2018-09-05T13:09:53.091Z,32.19
2018-09-05T13:11:46.436Z,31.81
2018-09-05T13:12:46.396Z,32.12
2018-09-05T13:14:39.726Z,32.48
2018-09-05T13:15:39.695Z,32.37
2018-09-05T13:17:33.035Z,32.51
2018-09-05T13:18:33.005Z,32.68
2018-09-05T13:20:26.356Z,33.04
2018-09-05T13:21:26.306Z,33.07
2018-09-05T13:23:19.680Z,33.07
2018-09-05T13:24:19.692Z,33.23
2018-09-05T13:26:12.978Z,33.27
2018-09-05T13:27:12.947Z,32.92
2018-09-05T13:29:06.313Z,32.59
2018-09-05T13:30:06.260Z,32.70
2018-09-05T13:31:59.592Z,32.34
2018-09-05T13:32:59.570Z,32.68
2018-09-05T13:34:52.902Z,32.67
2018-09-05T13:35:52.876Z,32.52
2018-09-05T13:37:46.208Z,32.41
2018-09-05T13:38:46.181Z,32.33
2018-09-05T13:40:39.533Z,32.09
2018-09-05T13:41:39.492Z,32.16
2018-09-05T13:43:32.320Z,31.89
2018-09-05T13:44:32.292Z,31.76
2018-09-05T13:46:25.621Z,31.99
2018-09-05T13:47:25.589Z,32.21
2018-09-05T13:49:18.917Z,32.22
2018-09-05T13:50:18.896Z,32.31
2018-09-05T13:52:12.236Z,32.16
2018-09-05T13:53:12.191Z,32.37
2018-09-05T13:55:05.049Z,32.49
2018-09-05T13:56:05.016Z,32.64
2018-09-05T13:57:58.339Z,32.49
2018-09-05T13:58:58.316Z,32.45
2018-09-05T14:00:51.667Z,32.46
2018-09-05T14:01:51.623Z,32.51
2018-09-05T14:03:44.958Z,32.48
2018-09-05T14:04:44.936Z,32.56
2018-09-05T14:06:38.282Z,32.68
2018-09-05T14:07:38.244Z,32.80
2018-09-05T14:09:31.558Z,32.52
2018-09-05T14:10:31.538Z,32.52
2018-09-05T14:12:24.873Z,32.53
2018-09-05T14:13:24.909Z,32.60
2018-09-05T14:15:18.164Z,32.33
2018-09-05T14:16:18.142Z,32.45
2018-09-05T14:18:11.476Z,32.83
2018-09-05T14:19:11.449Z,32.92
2018-09-05T14:21:04.788Z,32.56
2018-09-05T14:22:04.758Z,32.45
2018-09-05T14:23:58.092Z,32.71
2018-09-05T14:24:58.075Z,32.85
2018-09-05T14:26:51.398Z,32.89
2018-09-05T14:27:51.374Z,33.01
2018-09-05T14:29:44.698Z,32.56
2018-09-05T14:30:44.679Z,32.19
2018-09-05T14:32:38.024Z,32.19
2018-09-05T14:33:37.989Z,32.14
2018-09-05T14:35:30.818Z,32.31
2018-09-05T14:36:30.799Z,32.43
2018-09-05T14:38:24.143Z,32.23
2018-09-05T14:39:24.098Z,32.46
2018-09-05T14:41:17.434Z,32.73
2018-09-05T14:42:17.406Z,32.97
2018-09-05T14:44:10.747Z,32.75
2018-09-05T14:45:10.709Z,32.68
2018-09-05T14:47:04.038Z,32.46
2018-09-05T14:48:04.069Z,32.21
2018-09-05T14:49:57.346Z,31.58
2018-09-05T14:50:57.315Z,31.49
2018-09-05T14:52:50.659Z,31.69
2018-09-05T14:53:50.622Z,31.89
2018-09-05T14:55:43.945Z,31.99
2018-09-05T14:56:43.915Z,32.18
2018-09-05T14:58:37.274Z,32.16
2018-09-05T14:59:37.219Z,32.34
2018-09-05T15:01:30.539Z,32.55
2018-09-05T15:02:30.525Z,32.58
2018-09-05T15:04:23.875Z,32.71
2018-09-05T15:05:23.839Z,32.71
2018-09-05T15:07:17.164Z,32.48
2018-09-05T15:08:17.141Z,32.37
2018-09-05T15:10:10.477Z,32.16
2018-09-05T15:11:10.445Z,31.92
2018-09-05T15:13:03.785Z,31.21
2018-09-05T15:14:03.745Z,31.24
2018-09-05T15:15:57.061Z,31.14
2018-09-05T15:16:57.041Z,31.09
2018-09-05T15:18:50.371Z,31.25
2018-09-05T15:19:50.337Z,31.29
2018-09-05T15:21:43.660Z,31.34
2018-09-05T15:22:43.640Z,31.34
2018-09-05T15:24:36.965Z,31.18
2018-09-05T15:25:36.978Z,30.97
2018-09-05T15:27:30.280Z,30.78
2018-09-05T15:28:30.234Z,30.84
2018-09-05T15:30:23.575Z,30.88
2018-09-05T15:31:23.544Z,30.96
2018-09-05T15:33:16.384Z,30.77
2018-09-05T15:34:16.331Z,30.54
2018-09-05T15:36:09.175Z,30.31
2018-09-05T15:37:09.137Z,30.27
2018-09-05T15:39:02.591Z,30.43
2018-09-05T15:40:02.432Z,30.46
2018-09-05T15:41:55.953Z,30.43
2018-09-05T15:42:55.936Z,30.62
2018-09-05T15:44:49.263Z,30.55
2018-09-05T15:45:49.228Z,30.46
2018-09-05T15:47:42.557Z,30.12
2018-09-05T15:48:42.521Z,30.13
2018-09-05T15:50:35.841Z,29.95
2018-09-05T15:51:35.814Z,29.88
2018-09-05T15:53:29.145Z,29.86
2018-09-05T15:54:29.101Z,29.71
2018-09-05T15:56:22.474Z,29.75
2018-09-05T15:57:22.439Z,29.65
2018-09-05T15:59:15.742Z,29.73
2018-09-05T16:00:15.709Z,29.65
2018-09-05T16:02:09.048Z,29.41
2018-09-05T16:03:09.007Z,29.44
2018-09-05T16:05:02.342Z,29.39
2018-09-05T16:06:02.302Z,29.38
2018-09-05T16:07:55.643Z,29.32
2018-09-05T16:08:55.601Z,29.14
2018-09-05T16:10:48.934Z,29.04
2018-09-05T16:11:48.896Z,29.04
2018-09-05T16:13:42.248Z,29.01
2018-09-05T16:14:42.211Z,29.12
2018-09-05T16:16:35.562Z,28.96
2018-09-05T16:17:35.518Z,28.96
2018-09-05T16:19:28.840Z,28.88
2018-09-05T16:20:28.813Z,28.82
2018-09-05T16:22:22.142Z,28.76
2018-09-05T16:23:22.104Z,28.72
2018-09-05T16:25:14.919Z,28.70
2018-09-05T16:26:14.901Z,28.74
2018-09-05T16:28:08.232Z,28.63
2018-09-05T16:29:08.184Z,28.67
2018-09-05T16:31:01.007Z,28.72
2018-09-05T16:32:00.979Z,28.62
2018-09-05T16:33:53.813Z,28.75
2018-09-05T16:34:53.777Z,28.59
2018-09-05T16:36:47.099Z,28.48
2018-09-05T16:37:47.070Z,28.56
2018-09-05T16:39:40.405Z,28.56
2018-09-05T16:40:40.365Z,28.48
2018-09-05T16:42:33.200Z,28.51
2018-09-05T16:43:33.158Z,28.44
2018-09-05T16:45:25.993Z,28.39
2018-09-05T16:46:25.963Z,28.27
2018-09-05T16:48:19.289Z,28.23
2018-09-05T16:49:19.270Z,28.30
2018-09-05T16:51:12.088Z,28.20
2018-09-05T16:52:12.059Z,28.17
2018-09-05T16:54:05.392Z,28.14
2018-09-05T16:55:05.344Z,28.11
2018-09-05T16:56:58.174Z,28.10
2018-09-05T16:57:58.136Z,28.11
2018-09-05T16:59:51.473Z,28.08
2018-09-05T17:00:51.487Z,28.01
2018-09-05T17:02:44.248Z,27.95
2018-09-05T17:03:44.219Z,27.92
2018-09-05T17:05:37.559Z,27.75
2018-09-05T17:06:37.510Z,27.68
2018-09-05T17:08:30.858Z,27.49
2018-09-05T17:09:30.820Z,27.48
2018-09-05T17:11:24.144Z,27.40
2018-09-05T17:12:24.115Z,27.26
2018-09-05T17:14:16.968Z,27.21
2018-09-05T17:15:16.916Z,26.93
2018-09-05T17:17:10.219Z,26.81
2018-09-05T17:18:10.205Z,26.80
2018-09-05T17:20:04.534Z,26.77
2018-09-05T17:21:04.480Z,26.66
2018-09-05T17:22:57.302Z,26.52
2018-09-05T17:23:57.288Z,26.58
2018-09-05T17:25:50.106Z,26.48
2018-09-05T17:26:50.073Z,26.45
2018-09-05T17:28:43.402Z,26.41
2018-09-05T17:29:43.361Z,26.36
2018-09-05T17:31:36.695Z,26.36
2018-09-05T17:32:36.650Z,26.31
2018-09-05T17:34:29.972Z,26.26
2018-09-05T17:35:29.946Z,26.26
2018-09-05T17:37:23.278Z,26.19
2018-09-05T17:38:23.390Z,26.19
2018-09-05T17:40:16.591Z,26.19
2018-09-05T17:41:16.545Z,26.10
2018-09-05T17:43:09.384Z,25.87
2018-09-05T17:44:09.339Z,25.84
2018-09-05T17:46:02.687Z,25.62
2018-09-05T17:47:02.631Z,25.48
2018-09-05T17:48:55.947Z,25.55
2018-09-05T17:49:55.923Z,25.53
2018-09-05T17:51:49.242Z,25.48
2018-09-05T17:52:49.200Z,25.50
2018-09-05T17:54:42.036Z,25.40
2018-09-05T17:55:41.988Z,25.38
2018-09-05T17:57:34.832Z,25.35
2018-09-05T17:58:34.798Z,25.33
2018-09-05T18:00:27.607Z,25.44
2018-09-05T18:01:27.588Z,25.32
2018-09-05T18:03:20.423Z,25.31
2018-09-05T18:04:20.374Z,25.29
2018-09-05T18:06:13.706Z,25.14
2018-09-05T18:07:13.671Z,25.22
2018-09-05T18:09:06.987Z,25.06
2018-09-05T18:10:06.958Z,24.96
2018-09-05T18:12:00.288Z,24.88
2018-09-05T18:13:00.238Z,24.88
2018-09-05T18:14:53.076Z,24.77
2018-09-05T18:15:53.036Z,24.73
2018-09-05T18:17:46.367Z,24.60
2018-09-05T18:18:46.318Z,24.61
2018-09-05T18:20:39.146Z,24.77
2018-09-05T18:21:39.117Z,24.73
2018-09-05T18:23:32.448Z,24.76
2018-09-05T18:24:32.443Z,24.69
2018-09-05T18:26:25.709Z,24.60
2018-09-05T18:27:25.682Z,24.66
2018-09-05T18:29:19.003Z,24.65
2018-09-05T18:30:18.957Z,24.57
2018-09-05T18:32:12.302Z,24.55
2018-09-05T18:33:12.263Z,24.57
2018-09-05T18:35:05.078Z,24.63